Lake Bonaparte, New York
Current Conditions -  °F | °C
As of 8:58 AM on Thursday 18 Dec 2014 (Local Time) from KGTB Reporting Station
Haze Haze  
Wind Chill: 22°   Ceiling: 900
Heat Index: 29°   Visibility: 1.5mi
Dew Point: 27°   Wind: 8mph
Humidity: 91%   Direction: 280°W
Pressure: 29.95"   Gusts: NA
Location:  44.1447°N, 75.2952°W
Report Text: KGTB 181358Z AUTO 28007KT 250V310 1 1/2SM BR BKN009 OVC016 M01/M03 A2995 RMK AO2 UPB1305E1343SNE1305 BKN V OVC SLP150 P0000 T10141027
Loading
Personal Weather Stations






























Interactive Weather Map New forecast layout! Learn more

10-Day Weather Forecast

Advertisements
Track Severe Weather on mobile